Time;durP1;ratioP1;P1;durP2;ratioP2;P2;SDS_P1;SDS_P2;PMS_P1;PMS_P2;Temp;Humidity;BMP_temperature;BMP_pressure;BME280_temperature;BME280_humidity;BME280_pressure;Samples;Min_cycle;Max_cycle;Signal;HPM_P1;HPM_P2
2022/01/25 00:15:08;;;;;;;23.85;12.68;;;;;;;3.46;81.20;101639.84;5045051;28;20356;-87
2022/01/25 00:26:19;;;;;;;21.25;11.85;;;;;;;3.04;83.34;101639.06;5063477;28;20143;-85
2022/01/25 00:28:52;;;;;;;21.50;10.35;;;;;;;3.28;82.09;101642.75;5064534;28;20038;-87
2022/01/25 00:31:17;;;;;;;25.08;13.52;;;;;;;3.49;81.62;101641.38;5064128;28;20349;-87
2022/01/25 00:33:46;;;;;;;23.73;12.73;;;;;;;3.53;80.98;101645.41;5053341;28;20303;-87
2022/01/25 00:36:16;;;;;;;25.55;14.65;;;;;;;3.59;81.40;101639.34;5044631;28;20354;-86
2022/01/25 00:39:06;;;;;;;26.77;12.73;;;;;;;3.89;79.18;101644.16;5022084;28;20477;-86
2022/01/25 00:41:32;;;;;;;26.98;13.45;;;;;;;3.96;79.46;101645.16;5038413;28;20442;-86
2022/01/25 00:44:00;;;;;;;28.52;12.45;;;;;;;3.78;79.80;101639.97;5026053;28;20021;-87
2022/01/25 00:46:25;;;;;;;22.48;12.45;;;;;;;3.68;80.22;101645.53;5048955;28;20059;-87
2022/01/25 00:48:54;;;;;;;22.33;12.57;;;;;;;3.32;82.11;101641.41;5063379;28;20521;-87
2022/01/25 00:56:39;;;;;;;21.55;11.52;;;;;;;3.35;81.79;101643.78;5088188;28;20395;-87
2022/01/25 00:59:08;;;;;;;23.50;12.82;;;;;;;3.37;81.87;101641.75;5087973;28;20024;-87
2022/01/25 01:01:35;;;;;;;23.23;11.82;;;;;;;3.49;81.29;101646.78;5087480;28;20553;-87
2022/01/25 01:04:02;;;;;;;24.40;11.90;;;;;;;3.61;80.65;101634.63;5074294;28;20494;-86
2022/01/25 01:06:27;;;;;;;25.02;11.57;;;;;;;3.61;81.38;101639.16;5067765;28;20390;-86
2022/01/25 01:08:54;;;;;;;23.90;12.95;;;;;;;4.03;79.31;101628.22;5067898;28;20108;-86
2022/01/25 01:11:28;;;;;;;24.63;12.07;;;;;;;4.04;79.39;101633.47;5067655;28;20028;-87
2022/01/25 01:14:03;;;;;;;23.85;12.15;;;;;;;3.68;80.03;101636.63;5067308;28;20035;-86
2022/01/25 01:16:55;;;;;;;20.67;12.50;;;;;;;3.89;80.38;101629.81;5067396;28;20021;-86
2022/01/25 01:33:19;;;;;;;21.88;10.93;;;;;;;4.06;78.37;101617.94;5067195;28;19913;-87
2022/01/25 01:43:33;;;;;;;23.73;14.02;;;;;;;3.24;81.83;101619.84;5067972;28;20051;-87
2022/01/25 01:48:50;;;;;;;28.85;12.65;;;;;;;3.43;80.94;101618.63;5087785;28;20723;-87
2022/01/25 01:51:24;;;;;;;21.15;12.23;;;;;;;3.82;80.74;101608.09;5070173;28;20051;-88
2022/01/25 01:53:49;;;;;;;20.55;12.10;;;;;;;3.47;81.09;101616.44;5067547;28;20043;-87
2022/01/25 01:56:14;;;;;;;21.33;11.20;;;;;;;3.47;81.89;101619.97;5067226;28;20476;-86
2022/01/25 01:58:40;;;;;;;24.02;13.00;;;;;;;3.50;82.53;101621.47;5067357;28;20051;-87
2022/01/25 02:01:13;;;;;;;26.98;13.52;;;;;;;3.71;81.15;101620.09;5066559;28;20029;-86
2022/01/25 02:03:39;;;;;;;27.90;16.02;;;;;;;3.77;80.16;101615.84;5067719;28;20771;-87
2022/01/25 02:06:04;;;;;;;21.08;11.68;;;;;;;3.75;80.42;101616.03;5067304;28;20107;-87
2022/01/25 02:08:29;;;;;;;24.75;14.18;;;;;;;4.12;79.19;101618.25;5075243;28;20020;-87
2022/01/25 02:10:55;;;;;;;24.42;11.93;;;;;;;4.18;78.30;101622.94;5087067;28;20501;-87
2022/01/25 02:13:20;;;;;;;31.48;15.50;;;;;;;4.19;78.05;101616.53;5087309;28;20023;-85
2022/01/25 02:15:48;;;;;;;24.77;15.20;;;;;;;3.94;79.20;101605.84;5069005;28;20060;-87
2022/01/25 02:23:45;;;;;;;28.40;15.20;;;;;;;3.76;79.75;101601.53;5067056;28;20101;-87
2022/01/25 02:26:11;;;;;;;24.52;14.88;;;;;;;4.14;78.99;101597.31;5066531;28;20444;-87
2022/01/25 02:28:38;;;;;;;25.83;12.43;;;;;;;4.07;78.02;101598.00;5066853;28;20193;-87
2022/01/25 02:31:06;;;;;;;30.88;13.13;;;;;;;3.79;79.35;101592.22;5066209;28;20032;-88
2022/01/25 02:33:45;;;;;;;21.55;12.45;;;;;;;3.52;80.61;101600.56;5066831;28;20032;-87
2022/01/25 02:36:15;;;;;;;30.50;13.80;;;;;;;3.70;80.63;101592.25;5066303;28;20021;-87
2022/01/25 02:38:40;;;;;;;23.80;12.30;;;;;;;3.55;80.78;101594.84;5066750;28;20059;-86
2022/01/25 02:41:06;;;;;;;20.90;11.52;;;;;;;3.30;81.54;101592.19;5066139;28;20516;-87
2022/01/25 02:43:34;;;;;;;27.10;12.45;;;;;;;3.21;83.08;101601.31;5066524;28;20036;-86
2022/01/25 02:48:46;;;;;;;32.15;13.82;;;;;;;3.30;82.28;101596.72;5086461;28;20024;-86
2022/01/25 02:51:11;;;;;;;26.63;13.38;;;;;;;3.21;82.53;101595.94;5069566;28;20085;-87
2022/01/25 02:53:37;;;;;;;23.77;13.32;;;;;;;3.22;82.36;101608.38;5066507;28;20028;-87
2022/01/25 02:56:02;;;;;;;31.30;16.77;;;;;;;3.38;82.26;101600.28;5048316;28;20028;-88
2022/01/25 02:58:27;;;;;;;27.45;12.98;;;;;;;3.35;81.71;101597.94;5066017;28;20277;-87
2022/01/25 03:00:53;;;;;;;22.75;12.02;;;;;;;3.33;82.33;101591.88;5066032;28;20063;-87
2022/01/25 03:03:18;;;;;;;28.05;13.60;;;;;;;3.62;80.25;101579.63;5065855;28;20024;-87
2022/01/25 03:05:44;;;;;;;23.38;14.45;;;;;;;3.44;81.72;101584.44;5072548;28;20020;-87
2022/01/25 03:08:12;;;;;;;28.33;13.80;;;;;;;3.38;81.05;101589.47;5086029;28;20032;-87
2022/01/25 03:10:41;;;;;;;24.40;13.10;;;;;;;3.31;82.05;101588.50;5085758;28;20028;-86
2022/01/25 03:13:11;;;;;;;33.13;13.20;;;;;;;3.50;81.35;101589.09;5085650;28;20051;-88
2022/01/25 03:18:39;;;;;;;28.92;14.30;;;;;;;3.89;79.85;101570.44;5086006;28;20024;-87
2022/01/25 03:23:44;;;;;;;42.00;15.27;;;;;;;4.07;78.66;101571.03;5065589;28;20032;-87
2022/01/25 03:26:09;;;;;;;23.30;13.45;;;;;;;3.92;78.41;101591.69;5065640;28;20075;-87
2022/01/25 03:28:35;;;;;;;24.27;12.63;;;;;;;3.79;78.71;101584.97;5064761;28;20032;-87
2022/01/25 03:31:00;;;;;;;24.77;12.20;;;;;;;3.46;80.52;101587.78;5065728;28;20039;-87
2022/01/25 03:33:26;;;;;;;25.33;14.65;;;;;;;3.47;80.96;101589.47;5065712;28;20027;-87
2022/01/25 03:35:51;;;;;;;24.42;15.02;;;;;;;3.75;79.39;101586.34;5065098;28;20024;-87
2022/01/25 03:38:17;;;;;;;24.83;12.00;;;;;;;3.85;78.79;101586.97;5065184;28;20459;-86
2022/01/25 03:40:44;;;;;;;24.40;12.95;;;;;;;3.95;78.60;101581.38;5063881;28;20511;-87
2022/01/25 03:43:10;;;;;;;21.65;13.50;;;;;;;3.72;78.89;101584.00;5066825;28;20037;-87
2022/01/25 03:45:38;;;;;;;30.88;15.52;;;;;;;3.49;80.70;101585.59;5085342;28;20479;-87
2022/01/25 03:50:42;;;;;;;27.73;15.07;;;;;;;3.35;80.66;101578.22;5072956;28;20044;-86
2022/01/25 03:53:24;;;;;;;27.25;14.95;;;;;;;3.30;81.25;101576.00;5047028;28;20046;-86
2022/01/25 03:55:50;;;;;;;32.55;13.95;;;;;;;3.33;81.26;101580.22;5062535;28;20103;-87
2022/01/25 03:58:15;;;;;;;31.50;15.70;;;;;;;3.30;81.00;101576.00;5064967;28;20119;-88
2022/01/25 04:00:42;;;;;;;32.53;15.75;;;;;;;3.28;81.11;101572.66;5047661;28;20115;-87
2022/01/25 04:03:17;;;;;;;25.50;13.20;;;;;;;3.28;82.16;101572.66;5065184;28;20792;-87
2022/01/25 04:08:09;;;;;;;26.02;13.25;;;;;;;3.82;78.67;101571.13;5065233;28;20059;-87
2022/01/25 04:10:35;;;;;;;28.83;14.75;;;;;;;3.65;79.29;101583.00;5065039;28;20032;-87
2022/01/25 04:13:00;;;;;;;21.55;13.65;;;;;;;3.45;80.17;101568.06;5065153;28;20037;-86
2022/01/25 04:15:26;;;;;;;27.38;11.85;;;;;;;3.21;80.81;101572.50;5065199;28;20075;-86
2022/01/25 04:18:01;;;;;;;26.92;13.95;;;;;;;3.16;81.66;101572.16;5065128;28;20025;-86
2022/01/25 04:20:31;;;;;;;24.55;13.88;;;;;;;3.26;81.64;101569.28;5064637;28;20478;-87
2022/01/25 04:25:40;;;;;;;29.92;14.68;;;;;;;3.59;79.82;101563.81;5066670;28;20052;-87
2022/01/25 04:28:05;;;;;;;29.55;15.77;;;;;;;3.65;79.79;101561.41;5069374;28;20021;-88
2022/01/25 04:30:31;;;;;;;36.00;16.27;;;;;;;3.89;78.61;101552.38;5051537;28;20028;-87
2022/01/25 04:33:06;;;;;;;26.88;14.45;;;;;;;3.47;80.24;101554.41;5068977;28;20109;-87
2022/01/25 04:54:17;;;;;;;31.63;16.20;;;;;;;3.53;79.83;101556.41;5068552;28;20056;-88
2022/01/25 04:56:52;;;;;;;37.10;15.60;;;;;;;3.19;81.07;101560.19;5068783;28;20029;-87
2022/01/25 04:59:29;;;;;;;25.73;15.25;;;;;;;3.21;81.81;101552.78;5068371;28;20075;-87
2022/01/25 05:02:01;;;;;;;28.02;14.35;;;;;;;3.36;80.88;101561.84;5068482;28;20032;-86
2022/01/25 05:04:31;;;;;;;29.25;15.02;;;;;;;3.37;80.54;101560.84;5068455;28;20565;-86
2022/01/25 05:07:06;;;;;;;29.55;14.82;;;;;;;3.15;81.47;101568.63;5068058;28;20082;-87
2022/01/25 05:09:33;;;;;;;37.92;14.38;;;;;;;3.23;81.71;101569.63;5068621;28;20450;-87
2022/01/25 05:11:59;;;;;;;27.83;14.43;;;;;;;3.56;79.75;101564.16;5068065;28;20065;-87
2022/01/25 05:14:31;;;;;;;28.45;15.13;;;;;;;3.52;80.06;101562.81;5068263;28;20024;-87
2022/01/25 05:17:03;;;;;;;32.92;16.92;;;;;;;3.75;78.90;101562.06;5068128;28;20119;-87
2022/01/25 05:24:44;;;;;;;29.23;17.20;;;;;;;3.59;79.41;101558.41;5067922;28;20522;-87
2022/01/25 05:27:12;;;;;;;30.63;15.48;;;;;;;3.81;78.04;101555.97;5067926;28;20028;-88
2022/01/25 05:29:38;;;;;;;32.30;15.85;;;;;;;3.47;79.15;101549.00;5067910;28;20055;-86
2022/01/25 05:34:49;;;;;;;37.25;18.85;;;;;;;2.87;81.45;101550.13;5067683;28;20515;-87
2022/01/25 05:37:15;;;;;;;30.27;17.00;;;;;;;3.25;80.42;101556.81;5048805;28;20111;-87
2022/01/25 05:39:40;;;;;;;27.50;16.40;;;;;;;3.21;79.97;101556.34;5046526;28;20041;-86
2022/01/25 05:42:29;;;;;;;36.90;18.65;;;;;;;3.47;79.54;101551.72;5066088;28;20025;-86
2022/01/25 05:44:59;;;;;;;34.80;16.17;;;;;;;3.52;79.82;101546.63;5067508;28;20040;-87
2022/01/25 05:47:29;;;;;;;32.95;16.48;;;;;;;3.59;78.88;101550.31;5080807;28;20147;-87
2022/01/25 05:49:55;;;;;;;32.22;17.65;;;;;;;3.32;79.67;101552.41;5078914;28;20512;-87
2022/01/25 05:52:20;;;;;;;31.05;15.27;;;;;;;3.25;80.26;101556.81;5087923;28;20123;-87
2022/01/25 05:54:45;;;;;;;32.63;18.00;;;;;;;3.11;80.25;101553.78;5087363;28;20179;-86
2022/01/25 05:57:11;;;;;;;30.48;15.98;;;;;;;3.51;79.61;101550.34;5088374;28;20279;-86
2022/01/25 05:59:37;;;;;;;33.05;17.23;;;;;;;3.70;78.95;101545.56;5087686;28;20372;-84
2022/01/25 06:02:03;;;;;;;33.95;16.30;;;;;;;3.53;79.15;101542.94;5087766;28;20024;-87
2022/01/25 06:04:29;;;;;;;28.52;14.75;;;;;;;3.37;80.14;101541.13;5087525;28;20020;-86
2022/01/25 06:06:54;;;;;;;28.52;14.15;;;;;;;3.58;78.68;101532.44;5087593;28;20031;-87
2022/01/25 06:09:20;;;;;;;29.13;15.45;;;;;;;3.29;79.39;101547.38;5087496;28;20024;-86
2022/01/25 06:11:45;;;;;;;30.27;16.63;;;;;;;2.91;81.01;101540.69;5068890;28;20024;-86
2022/01/25 06:14:10;;;;;;;26.67;14.30;;;;;;;2.95;81.74;101540.38;5069435;28;20068;-86
2022/01/25 06:16:36;;;;;;;27.98;15.93;;;;;;;3.24;80.80;101539.81;5086984;28;20052;-86
2022/01/25 06:19:01;;;;;;;29.48;15.57;;;;;;;3.35;79.95;101549.38;5069211;28;20028;-86
2022/01/25 06:21:27;;;;;;;28.95;15.18;;;;;;;3.51;78.52;101539.56;5067853;28;20029;-87
2022/01/25 06:23:53;;;;;;;31.63;16.98;;;;;;;2.98;80.32;101542.72;5067027;28;20372;-87
2022/01/25 06:26:32;;;;;;;25.45;14.10;;;;;;;2.62;82.26;101546.59;5066480;28;20064;-86
2022/01/25 06:29:00;;;;;;;29.73;15.43;;;;;;;3.01;81.00;101545.06;5066775;28;20345;-87
2022/01/25 06:31:27;;;;;;;29.20;14.48;;;;;;;3.34;79.74;101545.00;5049368;28;20043;-86
2022/01/25 06:33:52;;;;;;;25.67;13.70;;;;;;;2.85;80.99;101556.72;5066801;28;20383;-87
2022/01/25 06:36:19;;;;;;;24.65;14.43;;;;;;;3.09;81.08;101555.81;5066753;28;20025;-86
2022/01/25 06:38:44;;;;;;;33.53;13.98;;;;;;;2.98;81.50;101558.88;5066628;28;20047;-86
2022/01/25 06:41:10;;;;;;;26.92;14.23;;;;;;;2.82;81.23;101549.81;5047888;28;20491;-86
2022/01/25 06:43:37;;;;;;;32.90;17.25;;;;;;;2.85;81.32;101557.53;5066975;28;20021;-86
2022/01/25 06:46:03;;;;;;;29.42;17.27;;;;;;;2.70;81.91;101567.31;5066533;28;20035;-87
2022/01/25 06:48:29;;;;;;;26.95;15.25;;;;;;;2.75;82.01;101563.09;5080373;28;20032;-86
2022/01/25 06:50:54;;;;;;;31.05;16.55;;;;;;;2.73;82.16;101562.41;5071648;28;20495;-87
2022/01/25 06:53:20;;;;;;;30.17;15.70;;;;;;;3.03;82.13;101556.53;5066539;28;20032;-86
2022/01/25 06:55:45;;;;;;;27.70;15.68;;;;;;;3.67;79.43;101556.69;5065409;28;20240;-87
2022/01/25 06:58:11;;;;;;;25.75;14.73;;;;;;;3.36;78.70;101553.75;5065796;28;20029;-87
2022/01/25 07:00:37;;;;;;;25.10;14.50;;;;;;;3.33;79.91;101569.44;5065768;28;20013;-86
2022/01/25 07:03:03;;;;;;;29.60;13.77;;;;;;;3.35;79.07;101562.88;5066096;28;20491;-87
2022/01/25 07:05:28;;;;;;;20.13;10.93;;;;;;;3.08;80.36;101567.63;5065527;28;20471;-86
2022/01/25 07:07:54;;;;;;;29.73;15.88;;;;;;;2.87;80.86;101571.69;5065628;28;20095;-87
2022/01/25 07:10:19;;;;;;;26.55;13.75;;;;;;;2.91;81.15;101570.31;5066194;28;20116;-87
2022/01/25 07:12:44;;;;;;;26.38;14.32;;;;;;;3.37;79.90;101577.03;5066006;28;20031;-87
2022/01/25 07:15:11;;;;;;;25.27;13.77;;;;;;;3.36;78.71;101578.03;5066181;28;20063;-87
2022/01/25 07:17:36;;;;;;;27.02;16.45;;;;;;;3.19;80.26;101574.53;5065899;28;20035;-87
2022/01/25 07:20:06;;;;;;;28.92;15.90;;;;;;;2.83;81.77;101572.19;5065807;28;20387;-87
2022/01/25 07:22:31;;;;;;;25.20;15.02;;;;;;;2.90;80.92;101571.34;5066031;28;20056;-87
2022/01/25 07:24:57;;;;;;;23.50;14.65;;;;;;;3.36;79.67;101569.09;5065735;28;20021;-87
2022/01/25 07:27:22;;;;;;;28.17;16.52;;;;;;;3.26;79.34;101569.28;5065857;28;20055;-87
2022/01/25 07:29:47;;;;;;;30.38;15.10;;;;;;;3.64;77.72;101560.56;5065262;28;20029;-86
2022/01/25 07:32:12;;;;;;;29.33;15.33;;;;;;;3.75;76.71;101567.47;5065806;28;20525;-87
2022/01/25 07:34:38;;;;;;;34.72;13.88;;;;;;;3.46;78.04;101553.56;5065222;28;20458;-86
2022/01/25 07:37:03;;;;;;;35.20;17.20;;;;;;;3.60;77.24;101564.66;5065654;28;20054;-86
2022/01/25 07:39:28;;;;;;;29.35;15.38;;;;;;;3.87;76.86;101558.97;5047465;28;20418;-86
2022/01/25 07:41:57;;;;;;;32.13;15.15;;;;;;;3.58;78.43;101566.69;5065043;28;20024;-86
2022/01/25 07:44:27;;;;;;;30.42;16.38;;;;;;;3.30;78.36;101570.63;5059390;28;20046;-87
2022/01/25 07:46:53;;;;;;;28.85;12.48;;;;;;;3.56;77.64;101569.53;5059351;28;20209;-88
2022/01/25 07:49:18;;;;;;;29.70;14.38;;;;;;;3.43;78.57;101564.69;5065371;28;20081;-87
2022/01/25 07:51:44;;;;;;;137.10;26.23;;;;;;;3.68;77.84;101561.09;5064327;28;20032;-85
2022/01/25 07:54:09;;;;;;;49.75;16.67;;;;;;;3.78;77.21;101553.63;5046961;28;20150;-85
2022/01/25 07:56:49;;;;;;;42.55;18.27;;;;;;;3.85;76.69;101562.69;5063385;28;20021;-85
2022/01/25 07:59:15;;;;;;;24.95;13.70;;;;;;;3.50;76.68;101567.53;5064551;28;20035;-84
2022/01/25 08:01:41;;;;;;;32.88;16.92;;;;;;;3.72;76.84;101559.72;5046957;28;20074;-85
2022/01/25 08:04:08;;;;;;;38.55;14.05;;;;;;;3.68;77.06;101555.69;5083822;28;20023;-86
2022/01/25 08:06:34;;;;;;;30.15;15.48;;;;;;;3.37;77.55;101554.59;5084880;28;20024;-85
2022/01/25 08:09:01;;;;;;;32.85;17.58;;;;;;;3.59;76.81;101563.81;5084166;28;20696;-83
2022/01/25 08:11:27;;;;;;;26.20;13.98;;;;;;;3.77;76.66;101557.34;5084670;28;20075;-87
2022/01/25 08:13:59;;;;;;;29.50;15.68;;;;;;;3.85;75.22;101561.84;5084834;28;20099;-86
2022/01/25 08:16:25;;;;;;;29.77;14.55;;;;;;;3.46;76.46;101579.69;5084938;28;20036;-86
2022/01/25 08:18:50;;;;;;;26.40;14.60;;;;;;;3.48;77.50;101581.19;5085571;28;20046;-86
2022/01/25 08:21:15;;;;;;;24.63;13.45;;;;;;;3.83;75.71;101585.47;5084700;28;20024;-86
2022/01/25 08:23:41;;;;;;;30.52;16.35;;;;;;;3.94;75.72;101578.84;5085437;28;20374;-86
2022/01/25 08:26:07;;;;;;;30.40;16.88;;;;;;;4.01;74.99;101577.13;5083965;28;20029;-86
2022/01/25 08:28:32;;;;;;;33.17;16.50;;;;;;;4.02;75.24;101568.03;5077947;28;20020;-85
2022/01/25 08:30:58;;;;;;;26.92;15.10;;;;;;;3.71;75.91;101575.06;5063846;28;20031;-85
2022/01/25 08:33:23;;;;;;;31.58;15.43;;;;;;;3.52;76.89;101584.38;5045898;28;20074;-86
2022/01/25 08:35:48;;;;;;;30.30;17.50;;;;;;;3.23;77.49;101588.50;5064568;28;20024;-86
2022/01/25 08:38:14;;;;;;;27.63;15.80;;;;;;;3.44;76.69;101587.94;5064617;28;20013;-86
2022/01/25 08:40:41;;;;;;;31.88;17.88;;;;;;;3.37;76.65;101578.88;5064595;28;20564;-85
2022/01/25 08:43:06;;;;;;;28.90;18.10;;;;;;;3.83;75.44;101580.06;5064119;28;20038;-85
2022/01/25 08:45:32;;;;;;;31.30;16.30;;;;;;;3.80;76.09;101581.28;5064990;28;20036;-86
2022/01/25 08:47:58;;;;;;;30.02;15.05;;;;;;;3.53;77.06;101579.84;5082221;28;20109;-86
2022/01/25 08:50:24;;;;;;;29.65;16.17;;;;;;;3.52;77.70;101586.25;5084869;28;20111;-85
2022/01/25 08:52:49;;;;;;;33.75;17.02;;;;;;;3.50;77.42;101589.09;5084607;28;20039;-85
2022/01/25 08:55:15;;;;;;;26.45;16.15;;;;;;;3.62;77.71;101589.59;5084721;28;20028;-86
2022/01/25 08:57:40;;;;;;;35.08;18.63;;;;;;;3.60;76.88;101587.06;5084632;28;20060;-86
2022/01/25 09:00:08;;;;;;;34.75;17.08;;;;;;;3.71;76.28;101585.00;5084450;28;20169;-86
2022/01/25 09:02:33;;;;;;;29.98;16.88;;;;;;;3.38;77.15;101594.88;5084760;28;20028;-86
2022/01/25 09:07:43;;;;;;;42.90;18.70;;;;;;;3.22;78.13;101586.81;5082419;28;20070;-86
2022/01/25 09:10:09;;;;;;;35.45;18.80;;;;;;;3.62;76.81;101590.44;5084339;28;20046;-86
2022/01/25 09:12:34;;;;;;;35.50;19.15;;;;;;;3.96;76.38;101595.72;5087076;28;20028;-85
2022/01/25 09:15:00;;;;;;;40.72;18.17;;;;;;;3.49;77.43;101595.53;5088165;28;20062;-86
2022/01/25 09:17:25;;;;;;;29.95;15.20;;;;;;;3.77;76.68;101597.81;5087765;28;20119;-86
2022/01/25 09:19:50;;;;;;;35.17;17.50;;;;;;;3.70;76.94;101596.84;5088905;28;20031;-86
2022/01/25 09:22:16;;;;;;;41.08;20.20;;;;;;;3.91;77.15;101598.09;5083465;28;20365;-87
2022/01/25 09:24:41;;;;;;;30.08;18.17;;;;;;;3.46;77.63;101590.47;5077358;28;20032;-85
2022/01/25 09:27:08;;;;;;;36.30;19.15;;;;;;;3.71;76.19;101598.50;5084746;28;20038;-85
2022/01/25 09:29:34;;;;;;;34.08;16.13;;;;;;;3.82;76.13;101606.22;5087478;28;20055;-86
2022/01/25 09:31:59;;;;;;;33.70;16.75;;;;;;;3.56;76.74;101607.31;5085072;28;20031;-86
2022/01/25 09:34:25;;;;;;;34.73;17.00;;;;;;;3.53;77.13;101614.91;5067273;28;20055;-86
2022/01/25 09:36:52;;;;;;;34.28;18.83;;;;;;;3.86;76.16;101606.72;5068056;28;20253;-87
2022/01/25 09:39:17;;;;;;;31.65;16.98;;;;;;;3.89;75.72;101602.81;5067650;28;20037;-86
2022/01/25 09:41:43;;;;;;;48.97;18.25;;;;;;;3.95;75.40;101602.97;5094057;28;20065;-86
2022/01/25 09:46:53;;;;;;;;;;;;;;;3.92;75.91;101610.56;5083373;28;20035;-87
2022/01/25 09:49:19;;;;;;;30.60;19.35;;;;;;;3.85;75.80;101608.56;5069278;28;19935;-85
2022/01/25 09:51:46;;;;;;;37.45;18.92;;;;;;;3.64;76.87;101613.72;5087435;28;20483;-86
2022/01/25 09:54:11;;;;;;;40.53;21.15;;;;;;;3.99;75.59;101611.56;5069786;28;20032;-86
2022/01/25 09:56:36;;;;;;;34.65;18.70;;;;;;;3.97;74.72;101611.72;5068772;28;20364;-85
2022/01/25 09:59:02;;;;;;;36.00;16.60;;;;;;;4.01;75.08;101617.63;5069592;28;20043;-84
2022/01/25 10:01:30;;;;;;;30.63;16.00;;;;;;;3.36;77.36;101621.16;5087182;28;20038;-86
2022/01/25 10:03:55;;;;;;;31.05;19.13;;;;;;;3.44;77.16;101627.59;5086989;28;20076;-87
2022/01/25 10:06:22;;;;;;;34.75;18.58;;;;;;;3.48;77.29;101639.69;5087049;28;20024;-86
2022/01/25 10:08:52;;;;;;;34.53;17.92;;;;;;;4.05;75.23;101628.91;5087014;28;20122;-86
2022/01/25 10:11:23;;;;;;;39.78;21.85;;;;;;;3.65;76.16;101628.88;5087206;28;20024;-87
2022/01/25 10:13:52;;;;;;;38.85;19.00;;;;;;;3.64;76.83;101635.28;5086813;28;20050;-86
2022/01/25 10:16:30;;;;;;;41.67;20.45;;;;;;;4.06;75.23;101633.28;5069307;28;20054;-85
2022/01/25 10:18:59;;;;;;;34.85;17.13;;;;;;;4.27;74.53;101634.56;5087099;28;20107;-85
2022/01/25 10:21:33;;;;;;;28.80;17.48;;;;;;;4.20;74.59;101634.41;5087171;28;20153;-85
2022/01/25 10:24:20;;;;;;;37.42;18.27;;;;;;;4.15;74.49;101636.81;5086766;28;20019;-85
2022/01/25 10:27:03;;;;;;;37.72;19.70;;;;;;;3.94;75.06;101631.00;5082976;28;20020;-85
2022/01/25 10:29:35;;;;;;;36.00;17.77;;;;;;;3.89;76.19;101633.34;5086333;28;20054;-86
2022/01/25 10:32:07;;;;;;;34.80;20.38;;;;;;;4.24;74.53;101624.94;5086275;28;20032;-85
2022/01/25 10:34:44;;;;;;;38.45;19.83;;;;;;;4.18;74.44;101625.66;5087054;28;20032;-86
2022/01/25 10:37:11;;;;;;;38.13;18.60;;;;;;;3.80;76.00;101635.25;5087136;28;20115;-86
2022/01/25 10:39:40;;;;;;;32.95;17.98;;;;;;;3.52;76.88;101643.72;5081103;28;20045;-86
2022/01/25 10:42:18;;;;;;;36.60;18.45;;;;;;;3.55;76.40;101640.69;5066874;28;20111;-85
2022/01/25 10:44:48;;;;;;;36.97;19.90;;;;;;;4.02;75.85;101640.91;5066158;28;20472;-86
2022/01/25 10:47:13;;;;;;;35.42;18.10;;;;;;;3.80;75.31;101635.25;5077325;28;20024;-87
2022/01/25 10:49:47;;;;;;;30.80;18.45;;;;;;;3.99;75.21;101638.53;5085836;28;20012;-86
2022/01/25 10:52:12;;;;;;;36.15;18.70;;;;;;;4.00;75.73;101637.53;5085361;28;20028;-87
2022/01/25 10:54:40;;;;;;;34.50;17.80;;;;;;;4.10;74.99;101629.22;5086257;28;20024;-86
2022/01/25 10:57:17;;;;;;;27.67;16.17;;;;;;;4.43;74.08;101620.94;5100397;28;20046;-87
2022/01/25 11:02:54;;;;;;;40.25;15.82;;;;;;;4.06;74.63;101625.19;5082110;28;20189;-87
2022/01/25 11:05:19;;;;;;;33.40;19.88;;;;;;;4.00;74.89;101629.44;5085230;28;20054;-87
2022/01/25 11:07:46;;;;;;;37.03;20.08;;;;;;;4.28;74.80;101614.63;5086208;28;20475;-87
2022/01/25 11:10:18;;;;;;;35.90;18.25;;;;;;;3.96;75.54;101620.00;5066839;28;20463;-86
2022/01/25 11:12:59;;;;;;;34.50;17.58;;;;;;;3.70;76.21;101621.94;5085387;28;20028;-87
2022/01/25 11:15:24;;;;;;;36.65;19.02;;;;;;;4.34;74.04;101624.72;5085661;28;20114;-86
2022/01/25 11:17:49;;;;;;;35.78;19.33;;;;;;;4.26;73.77;101617.50;5067155;28;20108;-87
2022/01/25 11:20:15;;;;;;;31.58;17.25;;;;;;;4.15;74.05;101617.91;5086176;28;20024;-86
2022/01/25 11:22:41;;;;;;;30.85;18.48;;;;;;;4.15;73.91;101616.03;5066733;28;20035;-86
2022/01/25 11:25:07;;;;;;;47.50;19.00;;;;;;;3.92;75.26;101621.38;5085050;28;20028;-86
2022/01/25 11:27:33;;;;;;;33.08;18.08;;;;;;;3.48;76.13;101623.50;5066739;28;20024;-87
2022/01/25 11:30:09;;;;;;;37.08;20.40;;;;;;;4.07;74.75;101616.06;5085186;28;20065;-86
2022/01/25 11:32:40;;;;;;;33.55;18.17;;;;;;;3.80;74.95;101608.28;5084511;28;20027;-86
2022/01/25 11:35:10;;;;;;;34.38;18.60;;;;;;;3.76;75.30;101615.03;5085175;28;20042;-86
2022/01/25 11:37:38;;;;;;;32.75;18.20;;;;;;;4.20;74.95;101607.41;5086249;28;20040;-86
2022/01/25 11:40:20;;;;;;;35.90;19.45;;;;;;;4.12;74.22;101602.03;5084146;28;20044;-86
2022/01/25 11:42:51;;;;;;;31.85;18.13;;;;;;;3.83;75.47;101610.59;5085436;28;20491;-85
2022/01/25 11:45:29;;;;;;;34.88;17.33;;;;;;;3.69;76.47;101614.88;5085502;28;20052;-85
2022/01/25 11:47:55;;;;;;;36.80;20.90;;;;;;;4.13;75.07;101598.34;5085348;28;20024;-85
2022/01/25 11:50:27;;;;;;;32.03;18.20;;;;;;;4.38;73.70;101598.19;5086117;28;20116;-86
2022/01/25 11:52:55;;;;;;;31.30;16.95;;;;;;;4.42;73.17;101600.38;5067111;28;20031;-86
2022/01/25 11:55:28;;;;;;;34.55;18.50;;;;;;;4.27;73.76;101602.16;5085139;28;20032;-86
2022/01/25 11:57:55;;;;;;;34.45;18.52;;;;;;;4.02;75.11;101603.13;5085602;28;20711;-85
2022/01/25 12:00:38;;;;;;;40.53;20.48;;;;;;;4.07;74.47;101598.00;5085416;28;20487;-85
2022/01/25 12:06:27;;;;;;;33.30;16.55;;;;;;;4.30;74.13;101591.84;5064313;28;20402;-86
2022/01/25 12:09:06;;;;;;;35.85;17.42;;;;;;;4.02;75.73;101594.16;5065176;28;20032;-85
2022/01/25 12:11:50;;;;;;;33.50;18.77;;;;;;;3.45;76.75;101603.13;5064807;28;20036;-85
2022/01/25 12:14:25;;;;;;;30.40;18.70;;;;;;;3.63;76.22;101591.28;5064530;28;20035;-86
2022/01/25 12:16:50;;;;;;;40.17;19.73;;;;;;;3.80;76.79;101588.53;5065203;28;20124;-85
2022/01/25 12:19:21;;;;;;;37.00;19.17;;;;;;;3.87;75.67;101589.50;5047409;28;20123;-86
2022/01/25 12:21:47;;;;;;;39.47;17.88;;;;;;;4.23;74.41;101584.63;5066857;28;20273;-86
2022/01/25 12:24:39;;;;;;;34.35;17.63;;;;;;;4.34;73.67;101586.91;5085207;28;20107;-86
2022/01/25 12:29:47;;;;;;;38.58;16.90;;;;;;;4.14;75.06;101587.38;5085726;28;20032;-86
2022/01/25 12:32:31;;;;;;;44.90;20.05;;;;;;;3.96;74.59;101579.53;5085016;28;20020;-85
2022/01/25 12:35:11;;;;;;;36.97;19.45;;;;;;;4.31;73.80;101581.88;5084672;28;20028;-85
2022/01/25 12:37:42;;;;;;;39.40;19.00;;;;;;;4.16;73.50;101579.09;5085376;28;20028;-86
2022/01/25 12:40:25;;;;;;;38.55;16.90;;;;;;;4.01;74.84;101573.59;5084268;28;20067;-86
2022/01/25 12:42:55;;;;;;;37.40;19.05;;;;;;;3.96;74.86;101568.72;5085088;28;20036;-86
2022/01/25 12:45:22;;;;;;;33.63;16.77;;;;;;;4.12;74.60;101561.56;5084715;28;20274;-84
2022/01/25 12:47:54;;;;;;;30.17;15.90;;;;;;;3.89;75.09;101563.19;5088106;28;20032;-86
2022/01/25 12:50:20;;;;;;;44.17;17.13;;;;;;;3.93;75.71;101569.91;5098156;28;20094;-86
2022/01/25 12:52:46;;;;;;;34.30;16.67;;;;;;;3.74;76.32;101565.78;5068305;28;20483;-87
2022/01/25 12:55:12;;;;;;;33.42;17.42;;;;;;;3.92;75.67;101562.00;5050597;28;20452;-86
2022/01/25 12:57:45;;;;;;;28.25;18.65;;;;;;;3.68;76.65;101561.91;5067950;28;20040;-86
2022/01/25 13:00:32;;;;;;;36.17;18.40;;;;;;;3.95;75.46;101558.94;5067894;28;20086;-86
2022/01/25 13:03:19;;;;;;;36.33;17.80;;;;;;;3.69;76.81;101560.06;5068315;28;20172;-85
2022/01/25 13:05:55;;;;;;;31.83;17.65;;;;;;;3.70;75.93;101561.75;5049832;28;20025;-86
2022/01/25 13:08:27;;;;;;;23.90;14.40;;;;;;;3.89;75.87;101541.59;5068181;28;20383;-86
2022/01/25 13:11:13;;;;;;;28.85;16.45;;;;;;;3.71;75.39;101534.59;5067185;28;20020;-86
2022/01/25 13:13:56;;;;;;;35.50;17.05;;;;;;;3.71;75.70;101539.16;5069558;28;20039;-86
2022/01/25 13:16:44;;;;;;;43.63;21.40;;;;;;;4.02;75.10;101542.88;5088327;28;20028;-85
2022/01/25 13:19:11;;;;;;;35.35;19.70;;;;;;;3.76;76.81;101552.13;5087532;28;20057;-86